Time;durP1;ratioP1;P1;durP2;ratioP2;P2;SDS_P1;SDS_P2;PMS_P1;PMS_P2;Temp;Humidity;BMP_temperature;BMP_pressure;BME280_temperature;BME280_humidity;BME280_pressure;Samples;Min_cycle;Max_cycle;Signal;HPM_P1;HPM_P2
2023/07/11 00:00:49;;;;;;;9.18;6.50;;;;;;;19.00;76.00;101589.50;4914204;29;20514;-54
2023/07/11 00:03:15;;;;;;;7.22;5.72;;;;;;;18.93;76.43;101579.81;4913783;29;20063;-54
2023/07/11 00:05:41;;;;;;;8.02;5.30;;;;;;;18.93;77.26;101578.03;4913474;29;20047;-54
2023/07/11 00:08:07;;;;;;;7.20;5.43;;;;;;;18.81;78.43;101577.97;4912768;29;20032;-54
2023/07/11 00:10:33;;;;;;;7.38;5.70;;;;;;;18.81;78.44;101577.13;4912896;29;20039;-54
2023/07/11 00:12:58;;;;;;;7.35;5.30;;;;;;;18.68;79.29;101568.28;4913020;29;20063;-54
2023/07/11 00:15:23;;;;;;;9.27;5.95;;;;;;;18.73;78.14;101570.06;4913197;29;20432;-54
2023/07/11 00:17:50;;;;;;;8.23;5.70;;;;;;;18.76;77.85;101569.19;4913441;29;20483;-54
2023/07/11 00:20:16;;;;;;;7.78;5.57;;;;;;;18.64;78.45;101563.88;4910698;29;20083;-54
2023/07/11 00:22:43;;;;;;;7.45;5.60;;;;;;;18.61;78.38;101572.69;4908337;29;20091;-54
2023/07/11 00:25:10;;;;;;;6.63;5.53;;;;;;;18.68;77.78;101560.38;4906991;29;20110;-54
2023/07/11 00:27:36;;;;;;;6.50;5.63;;;;;;;18.71;77.72;101563.00;4914494;29;20521;-54
2023/07/11 00:30:02;;;;;;;8.95;6.07;;;;;;;18.67;77.93;101563.88;4912127;29;20042;-54
2023/07/11 00:32:27;;;;;;;7.15;5.85;;;;;;;18.68;78.19;101561.25;4913540;29;20489;-54
2023/07/11 00:34:53;;;;;;;7.30;5.90;;;;;;;18.72;78.06;101556.88;4912135;29;20084;-54
2023/07/11 00:37:18;;;;;;;7.38;5.80;;;;;;;18.70;78.17;101548.94;4913664;29;20035;-54
2023/07/11 00:39:43;;;;;;;8.75;5.45;;;;;;;18.71;77.76;101555.09;4912934;29;20038;-54
2023/07/11 00:42:10;;;;;;;6.57;5.30;;;;;;;18.74;77.54;101556.00;4911559;29;20443;-54
2023/07/11 00:45:04;;;;;;;7.88;5.45;;;;;;;18.80;76.83;101560.41;4913040;29;20040;-54
2023/07/11 00:47:30;;;;;;;8.27;5.30;;;;;;;18.85;77.05;101558.63;4913509;29;20066;-54
2023/07/11 00:50:04;;;;;;;8.45;5.43;;;;;;;18.82;76.60;101555.13;4912844;29;20031;-54
2023/07/11 00:52:31;;;;;;;8.32;5.55;;;;;;;18.81;76.57;101562.13;4912200;29;20394;-54
2023/07/11 00:55:00;;;;;;;6.50;5.10;;;;;;;18.83;76.32;101555.13;4911839;29;20486;-54
2023/07/11 00:57:29;;;;;;;10.10;5.50;;;;;;;18.75;76.57;101556.88;4912869;29;20046;-54
2023/07/11 00:59:55;;;;;;;7.38;5.40;;;;;;;18.65;76.61;101555.97;4911182;29;20793;-54
2023/07/11 01:02:25;;;;;;;7.10;5.22;;;;;;;18.54;76.74;101558.59;4900364;29;20052;-54
2023/07/11 01:04:51;;;;;;;8.20;5.32;;;;;;;18.47;77.15;101558.59;4913315;29;20032;-54
2023/07/11 01:07:20;;;;;;;8.35;5.80;;;;;;;18.41;77.86;101564.72;4912540;29;20044;-54
2023/07/11 01:09:46;;;;;;;7.75;5.00;;;;;;;18.31;77.51;101560.31;4911272;29;20052;-54
2023/07/11 01:12:13;;;;;;;10.35;6.28;;;;;;;18.17;78.76;101569.03;4912813;29;20071;-54
2023/07/11 01:14:41;;;;;;;8.43;5.80;;;;;;;18.10;78.96;101567.25;4913425;29;20044;-53
2023/07/11 01:17:30;;;;;;;8.65;6.10;;;;;;;18.13;78.67;101566.38;4908044;29;20039;-54
2023/07/11 01:19:58;;;;;;;7.38;6.53;;;;;;;18.14;79.65;101562.88;4904423;29;20152;-54
2023/07/11 01:22:25;;;;;;;7.03;6.22;;;;;;;18.16;79.61;101561.13;4905629;29;20035;-54
2023/07/11 01:24:51;;;;;;;7.75;6.60;;;;;;;18.17;79.63;101553.19;4914058;29;20035;-54
2023/07/11 01:27:19;;;;;;;8.43;6.88;;;;;;;18.20;79.28;101554.97;4913918;29;20024;-54
2023/07/11 01:29:46;;;;;;;8.68;7.47;;;;;;;18.12;80.30;101554.97;4913504;29;20035;-54
2023/07/11 01:32:11;;;;;;;11.63;7.20;;;;;;;17.99;81.38;101554.03;4913240;29;20040;-54
2023/07/11 01:34:37;;;;;;;9.68;6.80;;;;;;;17.82;81.50;101553.03;4912038;29;20084;-53
2023/07/11 01:37:02;;;;;;;9.00;6.35;;;;;;;17.69;81.90;101544.19;4913843;29;20166;-54
2023/07/11 01:39:27;;;;;;;9.85;6.65;;;;;;;17.67;82.35;101540.63;4912956;29;20068;-54
2023/07/11 01:41:53;;;;;;;9.55;6.63;;;;;;;17.71;82.04;101532.78;4902253;29;20148;-54
2023/07/11 01:44:21;;;;;;;7.70;6.68;;;;;;;17.75;81.63;101532.78;4917627;29;20487;-54
2023/07/11 01:46:46;;;;;;;8.63;7.35;;;;;;;17.61;82.56;101530.97;4916938;29;20032;-54
2023/07/11 01:49:12;;;;;;;8.02;5.80;;;;;;;17.50;82.87;101530.91;4915045;29;20032;-53
2023/07/11 01:51:37;;;;;;;10.38;5.30;;;;;;;17.54;82.34;101530.03;4909351;29;20039;-54
2023/07/11 01:54:02;;;;;;;9.55;6.05;;;;;;;17.55;82.68;101521.28;4914849;29;20040;-54
2023/07/11 01:56:28;;;;;;;11.32;6.60;;;;;;;17.37;83.46;101521.16;4915811;29;20398;-54
2023/07/11 01:58:53;;;;;;;9.88;7.32;;;;;;;17.24;84.94;101519.31;4916602;29;20392;-54
2023/07/11 02:01:18;;;;;;;9.07;6.53;;;;;;;17.23;84.39;101514.91;4911678;29;20031;-54
2023/07/11 02:03:44;;;;;;;7.00;6.25;;;;;;;17.20;84.32;101513.13;4916346;29;20048;-54
2023/07/11 02:06:09;;;;;;;9.65;6.68;;;;;;;17.04;85.35;101517.41;4913931;29;20027;-54
2023/07/11 02:08:34;;;;;;;8.38;6.93;;;;;;;16.85;86.14;101511.09;4916389;29;20071;-54
2023/07/11 02:11:00;;;;;;;7.88;6.80;;;;;;;16.77;86.92;101505.78;4913820;29;20474;-54
2023/07/11 02:13:25;;;;;;;9.15;7.18;;;;;;;16.64;87.08;101495.97;4913688;29;20059;-54
2023/07/11 02:15:50;;;;;;;8.10;6.75;;;;;;;16.57;87.78;101499.41;4914486;29;20028;-54
2023/07/11 02:18:16;;;;;;;9.02;6.80;;;;;;;16.66;87.10;101491.63;4915598;29;20092;-54
2023/07/11 02:20:43;;;;;;;8.93;6.65;;;;;;;16.59;87.05;101492.44;4915929;29;20036;-54
2023/07/11 02:23:09;;;;;;;8.60;7.40;;;;;;;16.56;87.54;101490.66;4917083;29;20062;-54
2023/07/11 02:25:35;;;;;;;9.35;6.68;;;;;;;16.55;87.85;101483.63;4907398;29;20035;-54
2023/07/11 02:28:01;;;;;;;10.18;6.53;;;;;;;16.58;87.84;101475.75;4897865;29;20080;-54
2023/07/11 02:30:26;;;;;;;9.20;7.40;;;;;;;16.46;87.79;101470.41;4905763;29;20028;-54
2023/07/11 02:32:52;;;;;;;9.52;7.07;;;;;;;16.40;88.67;101467.72;4916649;29;20028;-53
2023/07/11 02:35:17;;;;;;;7.57;6.25;;;;;;;16.41;88.19;101470.38;4916420;29;20099;-54
2023/07/11 02:37:42;;;;;;;8.63;6.47;;;;;;;16.33;88.04;101472.03;4916528;29;20115;-54
2023/07/11 02:40:08;;;;;;;8.95;6.75;;;;;;;16.22;89.11;101471.94;4915711;29;20032;-54
2023/07/11 02:42:33;;;;;;;10.30;7.63;;;;;;;16.14;89.95;101468.34;4898833;29;20107;-54
2023/07/11 02:44:59;;;;;;;8.48;6.55;;;;;;;16.01;90.39;101461.19;4916587;29;20099;-54
2023/07/11 02:47:24;;;;;;;9.77;7.13;;;;;;;15.95;90.97;101456.75;4916272;29;20557;-53
2023/07/11 02:49:49;;;;;;;9.73;8.35;;;;;;;15.94;91.42;101449.72;4914487;29;20494;-54
2023/07/11 02:52:15;;;;;;;11.23;8.32;;;;;;;16.01;91.08;101443.66;4914546;29;20028;-54
2023/07/11 02:54:40;;;;;;;10.48;7.68;;;;;;;16.06;90.55;101444.59;4913266;29;20044;-54
2023/07/11 02:57:08;;;;;;;8.13;7.00;;;;;;;16.04;89.93;101443.69;4915531;29;20027;-54
2023/07/11 02:59:33;;;;;;;10.40;7.07;;;;;;;16.05;89.80;101442.81;4914485;29;20024;-54
2023/07/11 03:01:59;;;;;;;13.00;10.27;;;;;;;16.05;89.65;101440.19;4897006;29;20040;-54
2023/07/11 03:04:27;;;;;;;9.43;8.18;;;;;;;16.02;90.19;101437.53;4914432;29;20027;-54
2023/07/11 03:06:56;;;;;;;12.77;8.15;;;;;;;16.01;90.00;101430.50;4914435;29;20072;-54
2023/07/11 03:09:22;;;;;;;;;;;;;;;16.07;86.90;101427.94;4915482;29;20064;-54
2023/07/11 03:11:47;;;;;;;9.88;8.63;;;;;;;16.01;89.99;101425.25;4906991;29;19919;-54
2023/07/11 03:14:13;;;;;;;10.32;8.15;;;;;;;16.05;89.94;101421.78;4914785;29;20024;-53
2023/07/11 03:16:38;;;;;;;10.25;7.95;;;;;;;16.12;89.55;101418.38;4914174;29;20024;-54
2023/07/11 03:19:03;;;;;;;11.10;8.40;;;;;;;16.03;89.76;101417.38;4913356;29;20035;-54
2023/07/11 03:21:29;;;;;;;9.23;7.88;;;;;;;15.93;90.65;101412.03;4914830;29;20167;-53
2023/07/11 03:23:54;;;;;;;10.25;8.75;;;;;;;15.89;91.06;101409.34;4915315;29;20364;-53
2023/07/11 03:26:19;;;;;;;10.93;8.70;;;;;;;15.90;90.79;101401.50;4914795;29;20410;-54
2023/07/11 03:28:45;;;;;;;9.40;7.63;;;;;;;15.85;90.77;101412.81;4913690;29;20036;-53
2023/07/11 03:31:10;;;;;;;11.45;8.88;;;;;;;15.69;91.56;101407.34;4913186;29;20024;-53
2023/07/11 03:33:35;;;;;;;10.80;8.40;;;;;;;15.69;91.50;101402.09;4911944;29;20040;-53
2023/07/11 03:36:00;;;;;;;10.10;7.97;;;;;;;15.80;91.35;101405.78;4912554;29;20039;-53
2023/07/11 03:38:26;;;;;;;10.57;8.27;;;;;;;15.86;90.29;101398.81;4914863;29;20063;-53
2023/07/11 03:40:51;;;;;;;10.48;8.20;;;;;;;16.00;89.66;101405.09;4912640;29;20039;-54
2023/07/11 03:43:16;;;;;;;11.60;7.68;;;;;;;16.09;89.08;101404.28;4911777;29;20008;-54
2023/07/11 03:45:46;;;;;;;11.20;8.40;;;;;;;16.19;88.23;101402.63;4913348;29;20035;-54
2023/07/11 03:48:12;;;;;;;;;;;;;;;16.27;86.50;101408.88;4914467;29;20028;-54
2023/07/11 03:50:37;;;;;;;12.05;8.23;;;;;;;16.30;87.58;101407.13;4913247;29;20254;-54
2023/07/11 03:53:02;;;;;;;10.25;8.57;;;;;;;16.32;87.34;101408.03;4911308;29;20024;-53
2023/07/11 03:55:27;;;;;;;9.98;8.70;;;;;;;16.35;86.90;101394.00;4912709;29;20495;-54
2023/07/11 03:57:53;;;;;;;10.27;8.57;;;;;;;16.38;87.46;101395.78;4911999;29;20032;-54
2023/07/11 04:00:18;;;;;;;10.10;8.00;;;;;;;16.38;87.52;101399.31;4913638;29;20028;-53
2023/07/11 04:02:43;;;;;;;11.75;8.82;;;;;;;16.38;87.98;101401.97;4910798;29;20495;-54
2023/07/11 04:05:09;;;;;;;10.68;8.23;;;;;;;16.39;87.75;101395.81;4912611;29;20028;-53
2023/07/11 04:07:34;;;;;;;9.65;8.18;;;;;;;16.41;87.24;101391.44;4915013;29;20043;-54
2023/07/11 04:09:59;;;;;;;10.57;8.60;;;;;;;16.38;87.65;101387.91;4914191;29;20538;-54
2023/07/11 04:12:25;;;;;;;9.65;7.80;;;;;;;16.37;88.34;101386.16;4912049;29;20048;-54
2023/07/11 04:14:50;;;;;;;9.70;8.32;;;;;;;16.31;87.99;101379.09;4911685;29;20028;-54
2023/07/11 04:17:15;;;;;;;8.88;7.50;;;;;;;16.28;88.49;101384.31;4911193;29;20087;-52
2023/07/11 04:19:41;;;;;;;8.70;7.15;;;;;;;16.24;88.67;101380.78;4905303;29;20039;-53
2023/07/11 04:22:06;;;;;;;8.52;7.63;;;;;;;16.20;89.18;101375.50;4913972;29;20038;-54
2023/07/11 04:24:31;;;;;;;9.00;7.35;;;;;;;16.22;89.68;101384.25;4910196;29;20042;-54
2023/07/11 04:26:57;;;;;;;8.68;7.20;;;;;;;16.23;90.01;101376.38;4914663;29;20491;-54
2023/07/11 04:29:22;;;;;;;10.52;6.97;;;;;;;16.23;88.02;101378.13;4914512;29;20128;-54
2023/07/11 04:31:47;;;;;;;7.95;6.72;;;;;;;16.29;87.70;101372.94;4913033;29;20394;-54
2023/07/11 04:34:13;;;;;;;9.18;6.15;;;;;;;16.28;87.16;101372.06;4914066;29;20040;-53
2023/07/11 04:36:38;;;;;;;9.45;6.43;;;;;;;16.28;85.95;101372.06;4914506;29;20036;-53
2023/07/11 04:39:03;;;;;;;8.40;5.80;;;;;;;16.27;85.77;101367.66;4914281;29;20030;-53
2023/07/11 04:41:28;;;;;;;7.43;6.03;;;;;;;16.34;87.27;101368.59;4912636;29;20031;-54
2023/07/11 04:43:54;;;;;;;8.68;5.90;;;;;;;16.41;87.55;101361.63;4914249;29;20483;-53
2023/07/11 04:46:19;;;;;;;8.80;5.97;;;;;;;16.48;88.63;101358.16;4914305;29;20514;-54
2023/07/11 04:48:46;;;;;;;10.43;6.13;;;;;;;16.52;88.79;101366.13;4914051;29;20063;-54
2023/07/11 04:51:11;;;;;;;8.02;5.80;;;;;;;16.59;88.32;101366.16;4913274;29;20020;-54
2023/07/11 04:53:37;;;;;;;8.43;5.47;;;;;;;16.65;89.39;101356.53;4913542;29;20039;-54
2023/07/11 04:56:06;;;;;;;8.15;5.55;;;;;;;16.72;87.87;101348.69;4913298;29;20035;-54
2023/07/11 04:58:33;;;;;;;10.25;5.55;;;;;;;16.81;88.36;101354.00;4913829;29;20094;-54
2023/07/11 05:01:00;;;;;;;9.27;5.35;;;;;;;16.92;87.47;101338.34;4912562;29;20032;-53
2023/07/11 05:03:26;;;;;;;8.45;5.43;;;;;;;17.02;86.68;101334.88;4907799;29;20152;-54
2023/07/11 05:05:51;;;;;;;6.40;4.93;;;;;;;17.13;86.60;101338.44;4910360;29;20128;-54
2023/07/11 05:08:16;;;;;;;9.88;5.32;;;;;;;17.23;85.42;101344.59;4913892;29;20036;-54
2023/07/11 05:11:16;;;;;;;7.22;4.82;;;;;;;17.33;85.26;101324.44;4912793;29;20491;-54
2023/07/11 05:13:44;;;;;;;7.05;4.50;;;;;;;17.41;82.49;101327.09;4908260;29;20067;-54
2023/07/11 05:16:21;;;;;;;6.75;4.40;;;;;;;17.48;83.78;101328.88;4908821;29;20067;-54
2023/07/11 05:18:47;;;;;;;7.22;4.97;;;;;;;17.59;84.35;101324.53;4914094;29;20352;-54
2023/07/11 05:21:16;;;;;;;7.22;4.68;;;;;;;17.64;80.87;101319.25;4916603;29;20032;-54
2023/07/11 05:23:42;;;;;;;6.70;4.60;;;;;;;17.75;83.73;101312.25;4916621;29;20063;-54
2023/07/11 05:26:08;;;;;;;7.80;4.80;;;;;;;17.85;83.84;101319.28;4900576;29;20280;-54
2023/07/11 05:28:34;;;;;;;6.88;4.32;;;;;;;17.94;81.74;101318.44;4915463;29;20066;-54
2023/07/11 05:31:04;;;;;;;6.97;4.35;;;;;;;18.03;81.10;101313.19;4917049;29;20063;-54
2023/07/11 05:33:30;;;;;;;9.05;4.85;;;;;;;18.10;80.18;101314.06;4912857;29;20111;-54
2023/07/11 05:38:48;;;;;;;7.05;4.28;;;;;;;18.31;80.14;101314.97;4916892;29;20054;-54
2023/07/11 05:41:14;;;;;;;8.07;3.85;;;;;;;18.39;79.48;101306.16;4916120;29;20024;-53
2023/07/11 05:43:39;;;;;;;6.43;3.95;;;;;;;18.49;79.26;101301.72;4915628;29;20107;-54
2023/07/11 05:46:04;;;;;;;7.45;4.00;;;;;;;18.60;78.55;101302.56;4915620;29;20084;-54
2023/07/11 05:48:30;;;;;;;6.35;4.10;;;;;;;18.71;78.18;101301.66;4916589;29;20043;-54
2023/07/11 05:50:59;;;;;;;8.00;4.13;;;;;;;18.85;77.87;101302.50;4915275;29;20032;-54
2023/07/11 05:53:26;;;;;;;6.40;3.70;;;;;;;18.93;75.97;101297.25;4914763;29;20047;-54
2023/07/11 05:55:52;;;;;;;7.38;4.00;;;;;;;19.07;74.78;101299.81;4915128;29;20031;-53
2023/07/11 05:58:17;;;;;;;6.97;3.55;;;;;;;19.17;76.16;101290.09;4916392;29;20067;-54
2023/07/11 06:00:42;;;;;;;8.23;3.90;;;;;;;19.25;75.23;101288.31;4898578;29;20786;-54
2023/07/11 06:03:08;;;;;;;6.85;3.67;;;;;;;19.34;74.53;101287.38;4915208;29;20032;-54
2023/07/11 06:05:34;;;;;;;8.15;4.18;;;;;;;19.44;74.26;101289.94;4916544;29;20483;-54
2023/07/11 06:07:59;;;;;;;6.03;3.60;;;;;;;19.53;74.13;101289.00;4915231;29;20032;-54
2023/07/11 06:10:24;;;;;;;7.13;3.50;;;;;;;19.67;73.53;101286.28;4914781;29;20499;-54
2023/07/11 06:12:50;;;;;;;9.65;3.70;;;;;;;19.80;73.06;101284.44;4914681;29;20052;-54
2023/07/11 06:15:15;;;;;;;8.18;3.88;;;;;;;19.90;72.46;101286.13;4912566;29;20390;-54
2023/07/11 06:17:40;;;;;;;5.78;3.80;;;;;;;20.02;72.55;101279.00;4916122;29;20451;-55
2023/07/11 06:20:09;;;;;;;6.88;3.80;;;;;;;20.10;72.06;101285.06;4915567;29;20111;-55
2023/07/11 06:22:34;;;;;;;9.05;3.97;;;;;;;20.21;72.04;101282.34;4913288;29;20084;-54
2023/07/11 06:24:59;;;;;;;6.70;3.70;;;;;;;20.32;71.17;101285.78;4912041;29;20023;-55
2023/07/11 06:27:25;;;;;;;8.68;3.47;;;;;;;20.42;71.33;101284.78;4916721;29;20032;-54
2023/07/11 06:29:50;;;;;;;8.40;4.10;;;;;;;20.48;71.28;101281.19;4916686;29;20031;-54
2023/07/11 06:32:15;;;;;;;6.38;3.60;;;;;;;20.57;70.64;101270.50;4915779;29;20152;-54
2023/07/11 06:34:41;;;;;;;6.45;3.65;;;;;;;20.69;69.91;101276.59;4916697;29;20402;-54
2023/07/11 06:37:07;;;;;;;6.03;3.45;;;;;;;20.74;69.40;101274.75;4916709;29;20107;-55
2023/07/11 06:39:32;;;;;;;5.88;3.70;;;;;;;20.82;69.06;101273.75;4914362;29;20047;-54
2023/07/11 06:41:58;;;;;;;7.07;3.85;;;;;;;20.91;69.07;101266.59;4915081;29;20030;-54
2023/07/11 06:44:23;;;;;;;5.75;3.35;;;;;;;21.01;69.22;101263.84;4915510;29;20491;-54
2023/07/11 06:46:48;;;;;;;7.85;3.45;;;;;;;21.13;68.11;101272.50;4916285;29;20566;-54
2023/07/11 06:49:13;;;;;;;9.20;3.70;;;;;;;21.24;67.62;101265.28;4915832;29;20040;-55
2023/07/11 06:51:39;;;;;;;7.38;3.50;;;;;;;21.33;68.94;101262.50;4914734;29;20032;-55
2023/07/11 06:54:04;;;;;;;7.53;3.63;;;;;;;21.40;68.34;101265.06;4911203;29;20368;-55
2023/07/11 06:56:32;;;;;;;6.45;3.55;;;;;;;21.50;67.11;101264.03;4912237;29;21816;-55
2023/07/11 06:58:58;;;;;;;5.95;3.47;;;;;;;21.59;68.76;101266.56;4910351;29;20036;-55
2023/07/11 07:01:23;;;;;;;6.47;3.78;;;;;;;21.69;67.47;101260.19;4914953;29;20032;-55
2023/07/11 07:03:49;;;;;;;7.07;3.05;;;;;;;21.77;66.90;101262.75;4896729;29;20515;-55
2023/07/11 07:06:16;;;;;;;6.32;3.38;;;;;;;21.91;65.26;101264.28;4911841;29;20435;-55
2023/07/11 07:08:41;;;;;;;7.05;3.05;;;;;;;22.00;64.07;101266.78;4910220;29;20064;-55
2023/07/11 07:11:07;;;;;;;7.25;3.20;;;;;;;22.11;63.57;101274.56;4913787;29;20119;-55
2023/07/11 07:13:33;;;;;;;6.22;2.88;;;;;;;22.14;63.58;101266.53;4911816;29;20068;-55
2023/07/11 07:16:00;;;;;;;5.82;3.20;;;;;;;22.21;63.64;101265.53;4914908;29;20036;-55
2023/07/11 07:18:27;;;;;;;6.50;3.35;;;;;;;22.26;61.87;101269.00;4911555;29;20032;-55
2023/07/11 07:20:53;;;;;;;5.80;3.03;;;;;;;22.35;62.75;101260.88;4910443;29;20024;-55
2023/07/11 07:23:19;;;;;;;6.32;2.90;;;;;;;22.45;61.61;101266.00;4912578;29;20167;-55
2023/07/11 07:25:54;;;;;;;8.73;2.88;;;;;;;22.59;61.79;101263.97;4915486;29;20056;-54
2023/07/11 07:28:20;;;;;;;8.15;2.97;;;;;;;22.68;62.37;101258.47;4915127;29;20047;-55
2023/07/11 07:30:46;;;;;;;4.93;2.92;;;;;;;22.79;61.33;101255.59;4915597;29;20028;-55
2023/07/11 07:33:11;;;;;;;5.15;2.92;;;;;;;22.87;61.15;101260.72;4912227;29;20039;-55
2023/07/11 07:35:36;;;;;;;7.22;3.05;;;;;;;23.00;58.78;101246.31;4911912;29;20410;-55
2023/07/11 07:38:03;;;;;;;6.25;2.90;;;;;;;23.07;58.61;101252.34;4910879;29;20028;-55
2023/07/11 07:40:28;;;;;;;6.55;2.80;;;;;;;23.09;59.01;101250.53;4912754;29;20107;-55
2023/07/11 07:42:54;;;;;;;7.20;2.58;;;;;;;23.20;58.84;101245.91;4914817;29;20494;-55
2023/07/11 07:45:19;;;;;;;5.95;2.78;;;;;;;23.35;58.50;101242.00;4915360;29;20031;-55
2023/07/11 07:47:44;;;;;;;8.95;2.97;;;;;;;23.39;57.84;101241.03;4902648;29;20037;-55
2023/07/11 07:50:10;;;;;;;6.22;2.75;;;;;;;23.49;58.08;101235.47;4911704;29;20035;-55
2023/07/11 07:52:35;;;;;;;7.50;3.20;;;;;;;23.63;57.60;101235.16;4914198;29;20035;-55
2023/07/11 07:55:01;;;;;;;8.02;2.80;;;;;;;23.76;57.71;101231.25;4915030;29;20478;-55
2023/07/11 07:57:26;;;;;;;7.40;2.78;;;;;;;23.90;56.31;101233.63;4915035;29;20445;-56
2023/07/11 07:59:51;;;;;;;6.70;2.78;;;;;;;24.06;56.93;101226.97;4915013;29;20036;-56
2023/07/11 08:02:17;;;;;;;5.13;2.58;;;;;;;24.16;55.02;101232.03;4914785;29;20398;-54
2023/07/11 08:04:42;;;;;;;5.45;3.08;;;;;;;24.29;58.17;101226.34;4914250;29;20095;-55
2023/07/11 08:07:08;;;;;;;7.13;2.93;;;;;;;24.44;55.44;101232.16;4908957;29;20028;-55
2023/07/11 08:09:33;;;;;;;6.90;2.80;;;;;;;24.60;55.22;101212.16;4914405;29;20288;-55
2023/07/11 08:12:08;;;;;;;5.67;2.47;;;;;;;24.59;53.61;101217.50;4913819;29;20331;-55
2023/07/11 08:14:38;;;;;;;5.78;2.50;;;;;;;24.70;53.27;101217.25;4913395;29;20387;-55
2023/07/11 08:17:05;;;;;;;7.53;3.10;;;;;;;24.72;52.58;101220.72;4912489;29;20095;-56
2023/07/11 08:19:30;;;;;;;8.93;3.38;;;;;;;24.82;53.97;101214.19;4913519;29;20087;-55
2023/07/11 08:21:55;;;;;;;6.88;2.63;;;;;;;24.93;53.38;101212.09;4914849;29;20024;-55
2023/07/11 08:24:21;;;;;;;5.80;2.47;;;;;;;25.03;52.04;101212.69;4914574;29;20048;-55
2023/07/11 08:26:46;;;;;;;5.15;2.60;;;;;;;25.11;51.23;101213.31;4912282;29;20067;-55
2023/07/11 08:29:13;;;;;;;6.03;2.35;;;;;;;25.25;51.71;101206.69;4913252;29;20475;-55
2023/07/11 08:31:38;;;;;;;7.43;2.67;;;;;;;25.26;49.84;101216.41;4911820;29;20387;-55
2023/07/11 08:34:03;;;;;;;5.88;2.60;;;;;;;25.33;50.67;101218.00;4912737;29;20045;-55
2023/07/11 08:36:29;;;;;;;4.80;2.22;;;;;;;25.50;53.79;101212.97;4914646;29;20067;-55
2023/07/11 08:38:54;;;;;;;4.13;2.38;;;;;;;25.64;51.11;101209.84;4907566;29;20024;-55
2023/07/11 08:41:33;;;;;;;5.93;2.30;;;;;;;25.69;50.56;101215.03;4911609;29;20024;-55
2023/07/11 08:44:06;;;;;;;6.10;2.55;;;;;;;25.77;52.15;101204.13;4911847;29;20028;-55
2023/07/11 08:46:41;;;;;;;5.25;2.60;;;;;;;26.00;51.52;101211.38;4913015;29;20095;-55
2023/07/11 08:49:16;;;;;;;4.43;2.45;;;;;;;26.13;50.06;101201.97;4876049;29;20038;-55
2023/07/11 08:51:45;;;;;;;5.05;2.25;;;;;;;26.28;50.24;101199.69;4912966;29;20028;-55
2023/07/11 08:54:27;;;;;;;;;;;;;;;26.32;50.07;101199.50;4911713;29;20569;-55
2023/07/11 08:56:55;;;;;;;5.75;2.10;;;;;;;26.21;50.39;101196.34;4906323;29;19926;-56
2023/07/11 08:59:33;;;;;;;5.40;2.60;;;;;;;26.30;51.03;101190.69;4913081;29;20036;-55
2023/07/11 09:02:06;;;;;;;6.78;2.65;;;;;;;26.33;50.79;101200.38;4912024;29;20047;-56
2023/07/11 09:04:33;;;;;;;5.70;2.50;;;;;;;26.54;50.57;101201.38;4913746;29;20521;-56
2023/07/11 09:07:04;;;;;;;7.15;2.38;;;;;;;26.50;48.77;101192.59;4914016;29;20087;-56
2023/07/11 09:09:32;;;;;;;4.65;2.40;;;;;;;26.41;47.93;101182.25;4914000;29;20087;-55
2023/07/11 09:12:09;;;;;;;5.47;2.63;;;;;;;26.32;48.93;101183.47;4912632;29;20051;-56
2023/07/11 09:14:50;;;;;;;6.05;2.58;;;;;;;26.28;49.37;101192.53;4897039;29;20024;-56
2023/07/11 09:17:56;;;;;;;8.05;2.70;;;;;;;26.31;50.73;101191.56;4912094;29;20032;-56
2023/07/11 09:20:43;;;;;;;8.52;3.17;;;;;;;26.47;49.48;101189.19;4909543;29;20052;-55
2023/07/11 09:23:42;;;;;;;5.88;2.53;;;;;;;26.70;49.04;101180.31;4912716;29;20087;-56
2023/07/11 09:26:18;;;;;;;5.28;2.55;;;;;;;26.87;47.68;101185.88;4912587;29;20043;-56
2023/07/11 09:28:44;;;;;;;5.03;2.60;;;;;;;26.97;49.63;101180.16;4912991;29;20124;-56
2023/07/11 09:31:16;;;;;;;4.95;2.47;;;;;;;27.09;47.68;101181.50;4913939;29;20698;-56
2023/07/11 09:33:50;;;;;;;7.22;3.10;;;;;;;27.20;47.55;101174.78;4912005;29;20080;-56
2023/07/11 09:36:30;;;;;;;7.50;3.38;;;;;;;27.36;48.02;101182.19;4912808;29;20039;-56
2023/07/11 09:39:37;;;;;;;5.47;2.80;;;;;;;27.49;47.06;101182.53;4912289;29;20032;-56
2023/07/11 09:42:23;;;;;;;7.50;2.65;;;;;;;27.46;48.49;101175.53;4910024;29;20051;-56
2023/07/11 09:45:08;;;;;;;6.43;2.97;;;;;;;27.61;45.45;101174.00;4903980;29;20032;-55
2023/07/11 09:47:34;;;;;;;5.30;2.90;;;;;;;27.63;46.28;101172.13;4901774;29;20032;-56
2023/07/11 09:50:06;;;;;;;7.05;3.08;;;;;;;27.44;45.76;101174.72;4896966;29;20115;-55
2023/07/11 09:52:32;;;;;;;7.30;3.13;;;;;;;27.53;45.34;101165.41;4913857;29;20028;-56
2023/07/11 09:54:58;;;;;;;5.88;2.70;;;;;;;27.60;47.49;101174.94;4913484;29;20036;-56
2023/07/11 09:57:23;;;;;;;5.70;3.05;;;;;;;27.81;46.64;101165.13;4913800;29;20414;-55
2023/07/11 09:59:59;;;;;;;7.03;3.07;;;;;;;27.88;45.38;101163.91;4913685;29;20087;-55
2023/07/11 10:02:25;;;;;;;7.88;3.53;;;;;;;27.82;45.52;101161.47;4914805;29;20358;-56
2023/07/11 10:04:55;;;;;;;6.35;3.10;;;;;;;27.68;45.83;101166.59;4916293;29;20559;-55
2023/07/11 10:07:23;;;;;;;8.38;3.03;;;;;;;27.61;45.82;101160.63;4917225;29;20024;-56
2023/07/11 10:09:50;;;;;;;4.88;2.63;;;;;;;27.75;46.52;101165.38;4916931;29;20024;-56
2023/07/11 10:12:20;;;;;;;7.57;3.20;;;;;;;27.96;45.93;101141.28;4916865;29;20087;-56
2023/07/11 10:14:47;;;;;;;6.05;3.20;;;;;;;27.95;46.46;101156.47;4912765;29;20043;-55
2023/07/11 10:17:17;;;;;;;5.50;3.10;;;;;;;28.01;44.93;101152.66;4910527;29;20024;-56
2023/07/11 10:19:43;;;;;;;6.95;3.10;;;;;;;28.07;46.05;101144.38;4907959;29;20059;-56
2023/07/11 10:22:16;;;;;;;5.05;2.90;;;;;;;28.21;45.20;101154.44;4906700;29;20056;-55
2023/07/11 10:24:41;;;;;;;6.85;3.33;;;;;;;28.30;45.56;101150.47;4908753;29;20029;-56
2023/07/11 10:27:13;;;;;;;6.88;3.22;;;;;;;28.45;44.73;101137.25;4908679;29;20067;-56
2023/07/11 10:29:52;;;;;;;5.03;3.00;;;;;;;28.50;45.43;101145.06;4910300;29;20075;-55
2023/07/11 10:32:27;;;;;;;;;;;;;;;28.57;44.69;101145.66;4911675;29;20056;-56
2023/07/11 10:34:56;;;;;;;9.18;3.33;;;;;;;28.23;44.19;101141.88;4911139;29;19927;-55
2023/07/11 10:37:27;;;;;;;7.30;3.38;;;;;;;28.22;45.84;101140.97;4909544;29;20052;-55
2023/07/11 10:40:00;;;;;;;7.32;3.20;;;;;;;28.20;44.47;101136.63;4907502;29;20478;-55
2023/07/11 10:42:44;;;;;;;9.02;3.63;;;;;;;28.11;45.68;101143.28;4915502;29;20040;-56
2023/07/11 10:45:20;;;;;;;5.90;3.30;;;;;;;28.28;45.34;101132.66;4915865;29;20064;-56
2023/07/11 10:48:23;;;;;;;22.17;16.23;;;;;;;28.43;45.15;101120.38;4913191;29;20059;-57
2023/07/11 10:51:00;;;;;;;6.63;3.58;;;;;;;28.69;45.85;101117.41;4915256;29;20043;-56
2023/07/11 10:53:31;;;;;;;5.32;3.28;;;;;;;28.77;43.72;101120.59;4913118;29;20028;-56
2023/07/11 10:56:07;;;;;;;6.78;3.38;;;;;;;28.55;43.60;101126.09;4910851;29;20039;-56
2023/07/11 10:58:34;;;;;;;6.13;3.10;;;;;;;28.46;44.21;101119.38;4912258;29;20075;-56
2023/07/11 11:01:08;;;;;;;7.25;3.20;;;;;;;28.52;44.72;101116.38;4911613;29;20123;-56
2023/07/11 11:03:36;;;;;;;6.50;3.40;;;;;;;28.57;43.81;101113.47;4910065;29;20056;-56
2023/07/11 11:06:16;;;;;;;5.05;3.13;;;;;;;28.46;44.43;101114.00;4924720;29;20110;-56
2023/07/11 11:08:46;;;;;;;6.95;3.42;;;;;;;28.62;44.88;101106.13;4921869;29;20043;-55
2023/07/11 11:11:47;;;;;;;6.07;3.20;;;;;;;28.84;43.44;101111.31;4915813;29;20094;-55
2023/07/11 11:14:17;;;;;;;6.22;2.85;;;;;;;29.06;42.11;101110.25;4899097;29;20040;-54
2023/07/11 11:17:02;;;;;;;5.93;2.92;;;;;;;29.13;42.13;101112.53;4878500;29;20040;-55
2023/07/11 11:19:42;;;;;;;6.10;2.80;;;;;;;28.90;41.92;101092.22;4895875;29;20057;-55
2023/07/11 11:22:24;;;;;;;6.45;3.33;;;;;;;28.92;42.49;101103.75;4899733;29;20036;-55
2023/07/11 11:24:54;;;;;;;7.38;3.17;;;;;;;29.08;41.94;101090.47;4893062;29;20103;-56
2023/07/11 11:27:47;;;;;;;5.50;3.10;;;;;;;29.19;42.87;101089.91;4894296;29;20040;-56
2023/07/11 11:30:40;;;;;;;6.82;3.65;;;;;;;29.19;43.63;101092.59;4891099;29;22040;-55
2023/07/11 11:33:19;;;;;;;6.50;3.30;;;;;;;29.16;41.82;101084.69;4896410;29;20020;-56